< < Back
Terminal Aerodrome Forecast


Current Version              Previous Versions:   1  2  3  4  5  6  7  8  9  

Terminal Aerodrome Forecast

579
FTUS44 KBMX 031126
TAFMGM
TAF
KMGM 031126Z 0312/0412 32005KT P6SM SCT250=

Latest METAR

268
SAUS80 KWBC 031500 RRA
MTRMGM
METAR KMGM 031453Z 10004KT 10SM CLR 30/22 A2993 RMK AO2 SLP132 T03000217
51008


USA.gov is the U.S. government's official web portal to all federal, state and local government web resources and services.